Time;durP1;ratioP1;P1;durP2;ratioP2;P2;SDS_P1;SDS_P2;PMS_P1;PMS_P2;Temp;Humidity;BMP_temperature;BMP_pressure;BME280_temperature;BME280_humidity;BME280_pressure;Samples;Min_cycle;Max_cycle;Signal;HPM_P1;HPM_P2
2021/05/30 00:00:36;;;;;;;11.13;8.60;;;12.20;77.70;;;;;;5052929;28;20074;-38
2021/05/30 00:03:01;;;;;;;14.82;9.43;;;12.10;78.10;;;;;;5052553;28;20025;-36
2021/05/30 00:05:27;;;;;;;27.27;10.38;;;12.10;78.20;;;;;;5035321;28;20104;-37
2021/05/30 00:07:57;;;;;;;14.65;9.30;;;12.10;78.20;;;;;;5052885;28;20095;-37
2021/05/30 00:10:23;;;;;;;15.30;9.48;;;12.00;78.60;;;;;;5052462;28;20029;-37
2021/05/30 00:12:49;;;;;;;19.38;11.02;;;11.80;79.00;;;;;;5034750;28;20028;-36
2021/05/30 00:15:15;;;;;;;14.93;9.88;;;11.90;79.00;;;;;;5034941;28;20126;-37
2021/05/30 00:17:41;;;;;;;18.30;10.05;;;12.00;79.00;;;;;;5053059;28;20063;-38
2021/05/30 00:20:10;;;;;;;17.70;10.63;;;11.80;79.20;;;;;;5035491;28;20307;-37
2021/05/30 00:22:36;;;;;;;16.73;9.80;;;11.80;79.70;;;;;;5052514;28;20448;-37
2021/05/30 00:25:03;;;;;;;15.15;9.93;;;11.80;79.50;;;;;;5052226;28;20036;-36
2021/05/30 00:27:29;;;;;;;15.13;10.20;;;11.80;80.00;;;;;;5052041;28;20049;-37
2021/05/30 00:29:55;;;;;;;15.68;10.05;;;11.80;79.90;;;;;;5053331;28;20028;-37
2021/05/30 00:32:21;;;;;;;15.10;9.85;;;11.60;80.50;;;;;;5038493;28;20477;-37
2021/05/30 00:34:47;;;;;;;17.52;9.85;;;11.70;80.50;;;;;;5056221;28;20025;-37
2021/05/30 00:37:13;;;;;;;14.38;10.10;;;11.60;80.70;;;;;;5056445;28;20121;-37
2021/05/30 00:39:39;;;;;;;14.80;9.52;;;11.60;80.80;;;;;;5038497;28;20057;-37
2021/05/30 00:42:05;;;;;;;16.27;10.65;;;11.60;80.90;;;;;;5056365;28;20029;-36
2021/05/30 00:44:31;;;;;;;17.13;10.13;;;11.60;80.80;;;;;;5038309;28;20029;-37
2021/05/30 00:46:58;;;;;;;17.63;10.88;;;11.50;81.20;;;;;;5056661;28;20021;-36
2021/05/30 00:49:26;;;;;;;16.17;11.13;;;11.50;81.30;;;;;;5057055;28;20465;-37
2021/05/30 00:51:52;;;;;;;22.08;11.48;;;11.40;81.70;;;;;;5039197;28;20485;-36
2021/05/30 00:54:18;;;;;;;17.45;11.70;;;11.40;81.80;;;;;;5057142;28;20380;-36
2021/05/30 00:56:45;;;;;;;15.38;11.07;;;11.30;82.00;;;;;;5056426;28;20024;-37
2021/05/30 00:59:16;;;;;;;18.05;11.23;;;11.30;82.10;;;;;;5056587;28;20021;-36
2021/05/30 01:01:42;;;;;;;14.63;10.43;;;11.30;82.50;;;;;;5038661;28;20389;-37
2021/05/30 01:04:11;;;;;;;19.83;12.10;;;11.20;82.70;;;;;;5056515;28;20096;-37
2021/05/30 01:06:39;;;;;;;18.05;11.65;;;11.20;82.60;;;;;;5056643;28;20025;-36
2021/05/30 01:09:05;;;;;;;17.75;12.38;;;11.10;83.10;;;;;;5055935;28;20075;-36
2021/05/30 01:11:32;;;;;;;19.33;11.32;;;11.30;82.80;;;;;;5056086;28;20028;-36
2021/05/30 01:13:59;;;;;;;20.67;12.93;;;11.20;82.90;;;;;;5039022;28;20521;-36
2021/05/30 01:16:27;;;;;;;17.45;10.50;;;11.20;82.70;;;;;;5038331;28;20017;-36
2021/05/30 01:18:56;;;;;;;16.20;10.88;;;11.10;83.00;;;;;;5038321;28;20063;-37
2021/05/30 01:21:22;;;;;;;20.73;12.13;;;11.00;83.60;;;;;;5056378;28;20408;-38
2021/05/30 01:23:56;;;;;;;18.73;11.85;;;10.90;83.80;;;;;;5056759;28;20059;-37
2021/05/30 01:26:24;;;;;;;16.92;11.60;;;11.10;83.80;;;;;;5055817;28;20049;-36
2021/05/30 01:28:50;;;;;;;16.20;12.05;;;11.10;83.60;;;;;;5037977;28;20033;-36
2021/05/30 01:31:16;;;;;;;25.48;11.93;;;11.00;83.60;;;;;;5037939;28;20028;-36
2021/05/30 01:33:42;;;;;;;18.73;11.50;;;10.90;84.20;;;;;;5055643;28;20021;-36
2021/05/30 01:36:08;;;;;;;18.13;11.80;;;10.90;84.20;;;;;;5055954;28;20036;-36
2021/05/30 01:38:35;;;;;;;20.92;12.82;;;11.00;83.80;;;;;;5037859;28;20029;-36
2021/05/30 01:41:01;;;;;;;16.35;10.73;;;10.90;84.00;;;;;;5055599;28;20465;-36
2021/05/30 01:43:27;;;;;;;18.85;11.30;;;10.80;84.60;;;;;;5038053;28;20025;-36
2021/05/30 01:45:53;;;;;;;14.93;11.20;;;10.80;84.60;;;;;;5056262;28;20025;-36
2021/05/30 01:48:19;;;;;;;16.52;11.68;;;10.80;84.80;;;;;;5038263;28;20025;-37
2021/05/30 01:50:48;;;;;;;24.98;12.32;;;10.70;85.00;;;;;;5056053;28;20025;-37
2021/05/30 01:53:19;;;;;;;18.33;12.57;;;10.70;85.00;;;;;;5022245;28;20029;-36
2021/05/30 01:58:18;;;;;;;21.63;12.80;;;10.60;85.30;;;;;;5056133;28;20087;-37
2021/05/30 02:00:46;;;;;;;20.30;13.63;;;10.60;85.40;;;;;;5037707;28;20109;-37
2021/05/30 02:03:13;;;;;;;18.40;12.05;;;10.50;85.50;;;;;;5055234;28;20104;-37
2021/05/30 02:05:41;;;;;;;21.38;12.93;;;10.50;85.50;;;;;;5055454;28;20080;-36
2021/05/30 02:08:09;;;;;;;17.38;11.88;;;10.60;85.60;;;;;;5055232;28;20053;-36
2021/05/30 02:10:35;;;;;;;21.15;14.27;;;10.60;85.30;;;;;;5055311;28;20025;-36
2021/05/30 02:13:03;;;;;;;21.17;13.43;;;10.50;85.50;;;;;;5055021;28;20017;-35
2021/05/30 02:15:28;;;;;;;17.60;12.48;;;10.40;85.70;;;;;;5055412;28;20075;-36
2021/05/30 02:17:54;;;;;;;22.65;12.75;;;10.40;86.10;;;;;;5055020;28;20021;-35
2021/05/30 02:20:30;;;;;;;18.33;12.13;;;10.30;86.20;;;;;;5036870;28;20488;-36
2021/05/30 02:22:56;;;;;;;17.08;12.15;;;10.40;86.50;;;;;;5055170;28;20080;-36
2021/05/30 02:25:22;;;;;;;16.65;12.23;;;10.30;86.10;;;;;;5054955;28;20025;-36
2021/05/30 02:27:47;;;;;;;22.80;13.13;;;10.30;86.40;;;;;;5054349;28;20049;-37
2021/05/30 02:30:13;;;;;;;22.33;13.35;;;10.30;86.50;;;;;;5054803;28;20036;-36
2021/05/30 02:32:39;;;;;;;19.67;13.10;;;10.30;86.50;;;;;;5054734;28;20078;-36
2021/05/30 02:35:05;;;;;;;16.98;12.27;;;10.20;86.70;;;;;;5036589;28;20021;-36
2021/05/30 02:37:31;;;;;;;20.48;11.85;;;10.20;87.00;;;;;;5036671;28;20530;-36
2021/05/30 02:39:56;;;;;;;18.60;12.70;;;10.20;86.80;;;;;;5054569;28;20108;-36
2021/05/30 02:42:22;;;;;;;18.80;12.75;;;10.20;86.50;;;;;;5054641;28;20029;-36
2021/05/30 02:44:48;;;;;;;21.42;13.02;;;10.20;86.60;;;;;;5054641;28;20037;-37
2021/05/30 02:47:13;;;;;;;19.05;12.57;;;10.20;86.60;;;;;;5054541;28;20075;-36
2021/05/30 02:49:39;;;;;;;24.40;13.35;;;10.10;86.90;;;;;;5054785;28;20017;-36
2021/05/30 02:52:05;;;;;;;21.80;13.95;;;10.00;87.10;;;;;;5036280;28;20021;-36
2021/05/30 02:54:32;;;;;;;19.83;13.07;;;10.10;87.10;;;;;;5054216;28;20479;-37
2021/05/30 02:56:58;;;;;;;21.48;14.73;;;10.30;86.30;;;;;;5054455;28;20060;-37
2021/05/30 02:59:23;;;;;;;22.02;14.43;;;10.00;87.00;;;;;;5054448;28;20055;-35
2021/05/30 03:01:49;;;;;;;21.60;14.30;;;10.00;87.10;;;;;;5054838;28;20092;-36
2021/05/30 03:04:15;;;;;;;23.33;13.30;;;10.00;87.30;;;;;;5054512;28;20021;-37
2021/05/30 03:06:40;;;;;;;22.55;15.63;;;10.00;87.50;;;;;;5036598;28;20029;-37
2021/05/30 03:09:06;;;;;;;20.92;14.15;;;9.90;87.20;;;;;;5053930;28;20066;-36
2021/05/30 03:11:32;;;;;;;23.80;15.65;;;10.00;87.10;;;;;;5054035;28;20082;-36
2021/05/30 03:13:57;;;;;;;26.85;14.60;;;9.80;87.40;;;;;;5054124;28;20083;-36
2021/05/30 03:16:24;;;;;;;24.60;15.13;;;9.90;87.30;;;;;;5053822;28;20029;-36
2021/05/30 03:18:50;;;;;;;22.08;14.93;;;9.80;87.40;;;;;;5053786;28;20091;-36
2021/05/30 03:21:17;;;;;;;24.58;14.50;;;9.70;87.80;;;;;;5053714;28;20021;-36
2021/05/30 03:23:43;;;;;;;24.27;16.38;;;9.80;87.80;;;;;;5054077;28;20025;-36
2021/05/30 03:26:09;;;;;;;23.67;15.15;;;9.80;87.60;;;;;;5053243;28;20025;-36
2021/05/30 03:28:34;;;;;;;23.25;15.48;;;9.80;87.30;;;;;;5053809;28;20041;-36
2021/05/30 03:31:00;;;;;;;25.60;15.57;;;9.70;87.60;;;;;;5053490;28;20040;-36
2021/05/30 03:33:26;;;;;;;24.67;16.67;;;9.70;87.70;;;;;;5019201;28;20435;-36
2021/05/30 03:35:55;;;;;;;27.90;16.48;;;9.70;87.40;;;;;;5053529;28;20025;-37
2021/05/30 03:38:23;;;;;;;21.98;15.55;;;9.60;87.50;;;;;;5053444;28;20025;-36
2021/05/30 03:40:50;;;;;;;23.25;15.23;;;9.60;87.90;;;;;;5053432;28;20040;-36
2021/05/30 03:43:16;;;;;;;24.13;15.60;;;9.60;88.10;;;;;;5053331;28;20021;-37
2021/05/30 03:45:43;;;;;;;28.58;16.83;;;9.60;87.90;;;;;;5053638;28;20446;-37
2021/05/30 03:48:08;;;;;;;24.38;15.50;;;9.70;87.50;;;;;;5053248;28;20037;-36
2021/05/30 03:50:35;;;;;;;25.05;16.98;;;9.70;87.60;;;;;;5053515;28;20571;-36
2021/05/30 03:53:01;;;;;;;24.88;16.88;;;9.90;87.20;;;;;;5053423;28;20100;-36
2021/05/30 03:55:27;;;;;;;33.35;17.25;;;9.80;87.00;;;;;;5053130;28;20104;-35
2021/05/30 03:57:55;;;;;;;26.23;16.10;;;9.70;87.10;;;;;;5035296;28;20107;-36
2021/05/30 04:00:22;;;;;;;29.25;17.83;;;9.70;87.30;;;;;;5053188;28;20113;-36
2021/05/30 04:02:48;;;;;;;28.92;18.40;;;9.90;87.00;;;;;;5053414;28;20033;-36
2021/05/30 04:05:15;;;;;;;30.13;16.92;;;9.80;87.10;;;;;;5052584;28;20032;-37
2021/05/30 04:07:42;;;;;;;30.48;17.70;;;9.90;87.30;;;;;;5053067;28;20033;-42
2021/05/30 04:10:10;;;;;;;27.30;17.90;;;9.80;87.10;;;;;;5053460;28;20037;-36
2021/05/30 04:12:40;;;;;;;27.52;18.55;;;9.80;87.30;;;;;;5053160;28;20053;-36
2021/05/30 04:15:08;;;;;;;27.35;17.42;;;9.80;87.70;;;;;;5053769;28;20476;-36
2021/05/30 04:17:34;;;;;;;25.95;17.58;;;9.90;86.90;;;;;;5053086;28;20123;-36
2021/05/30 04:19:59;;;;;;;27.98;18.85;;;10.00;86.80;;;;;;5035784;28;20084;-36
2021/05/30 04:22:25;;;;;;;28.25;19.75;;;10.10;86.70;;;;;;5053282;28;20029;-36
2021/05/30 04:24:51;;;;;;;30.33;19.67;;;9.90;86.60;;;;;;5053370;28;20107;-36
2021/05/30 04:27:16;;;;;;;31.33;18.48;;;9.80;87.20;;;;;;5052879;28;20041;-36
2021/05/30 04:29:42;;;;;;;30.38;18.42;;;9.80;87.20;;;;;;5052901;28;20029;-36
2021/05/30 04:32:08;;;;;;;31.35;18.58;;;9.90;87.10;;;;;;5052965;28;20477;-36
2021/05/30 04:34:34;;;;;;;25.42;17.75;;;9.80;87.20;;;;;;5052902;28;20052;-36
2021/05/30 04:37:00;;;;;;;30.40;19.23;;;9.90;87.10;;;;;;5053250;28;20480;-37
2021/05/30 04:39:27;;;;;;;34.63;20.55;;;9.90;86.90;;;;;;5052551;28;20025;-36
2021/05/30 04:41:53;;;;;;;31.88;18.90;;;10.00;86.70;;;;;;5052884;28;20051;-37
2021/05/30 04:44:19;;;;;;;28.60;19.30;;;10.10;86.70;;;;;;5052685;28;20089;-36
2021/05/30 04:46:44;;;;;;;28.80;17.83;;;10.10;86.60;;;;;;5052607;28;20029;-36
2021/05/30 04:49:10;;;;;;;33.08;19.00;;;10.10;86.50;;;;;;5052746;28;20108;-36
2021/05/30 04:51:36;;;;;;;26.52;17.70;;;10.30;85.90;;;;;;5034657;28;20021;-36
2021/05/30 04:54:02;;;;;;;30.50;19.42;;;10.30;85.80;;;;;;5052944;28;20017;-36
2021/05/30 04:56:27;;;;;;;25.95;18.15;;;10.30;86.00;;;;;;5052399;28;20405;-37
2021/05/30 04:58:53;;;;;;;29.60;18.73;;;10.30;85.70;;;;;;5052724;28;20060;-36
2021/05/30 05:01:19;;;;;;;32.17;18.25;;;10.30;85.70;;;;;;5052442;28;20056;-36
2021/05/30 05:03:44;;;;;;;31.23;18.42;;;10.40;85.20;;;;;;5052580;28;20025;-35
2021/05/30 05:06:11;;;;;;;30.40;19.00;;;10.40;85.00;;;;;;5053024;28;20107;-35
2021/05/30 05:08:37;;;;;;;33.42;19.40;;;10.40;84.60;;;;;;5052598;28;20028;-36
2021/05/30 05:11:03;;;;;;;29.80;18.85;;;10.50;84.70;;;;;;5052443;28;20025;-35
2021/05/30 05:13:29;;;;;;;28.38;19.05;;;10.60;84.50;;;;;;5051997;28;20445;-36
2021/05/30 05:15:55;;;;;;;31.77;20.23;;;10.70;83.50;;;;;;5053223;28;20079;-36
2021/05/30 05:18:23;;;;;;;28.23;19.67;;;10.70;83.90;;;;;;5055975;28;20033;-35
2021/05/30 05:20:49;;;;;;;32.67;18.38;;;10.80;83.60;;;;;;5055946;28;20112;-36
2021/05/30 05:23:21;;;;;;;28.50;19.30;;;10.80;83.30;;;;;;5039111;28;20404;-36
2021/05/30 05:25:54;;;;;;;32.63;19.00;;;10.80;83.30;;;;;;5055899;28;20021;-36
2021/05/30 05:28:21;;;;;;;32.10;19.63;;;10.80;82.60;;;;;;5037923;28;20086;-36
2021/05/30 05:30:48;;;;;;;31.33;20.58;;;10.70;83.40;;;;;;5055874;28;20033;-36
2021/05/30 05:33:14;;;;;;;26.88;18.80;;;10.80;83.40;;;;;;5037823;28;20021;-36
2021/05/30 05:35:39;;;;;;;32.92;20.83;;;10.90;82.70;;;;;;5037872;28;20477;-37
2021/05/30 05:38:05;;;;;;;29.35;19.25;;;10.90;82.90;;;;;;5055939;28;20032;-36
2021/05/30 05:40:31;;;;;;;30.50;19.75;;;11.00;82.30;;;;;;5055547;28;20033;-36
2021/05/30 05:42:57;;;;;;;31.45;19.40;;;11.20;82.20;;;;;;5055551;28;20021;-36
2021/05/30 05:45:23;;;;;;;30.38;20.23;;;11.30;81.20;;;;;;5055528;28;20025;-36
2021/05/30 05:47:50;;;;;;;32.63;17.63;;;11.40;80.70;;;;;;5037346;28;20497;-37
2021/05/30 05:50:17;;;;;;;27.23;17.58;;;11.40;80.70;;;;;;5056276;28;20021;-36
2021/05/30 05:52:45;;;;;;;29.80;19.15;;;11.60;80.60;;;;;;5055734;28;20021;-36
2021/05/30 05:55:12;;;;;;;28.80;17.65;;;11.70;79.70;;;;;;5037416;28;20028;-36
2021/05/30 05:57:38;;;;;;;33.75;21.27;;;11.70;79.30;;;;;;5055075;28;20052;-36
2021/05/30 06:00:07;;;;;;;34.55;18.70;;;11.50;80.00;;;;;;5055230;28;20079;-36
2021/05/30 06:02:32;;;;;;;32.22;20.30;;;11.60;79.40;;;;;;5055608;28;20392;-36
2021/05/30 06:04:58;;;;;;;27.25;19.27;;;11.60;79.50;;;;;;5037213;28;20112;-35
2021/05/30 06:07:24;;;;;;;33.30;20.45;;;11.80;79.20;;;;;;5054968;28;20037;-36
2021/05/30 06:09:51;;;;;;;27.17;16.20;;;11.90;78.80;;;;;;5055094;28;20053;-37
2021/05/30 06:12:17;;;;;;;21.85;16.42;;;12.20;76.80;;;;;;5055457;28;20046;-36
2021/05/30 06:14:42;;;;;;;20.48;15.90;;;12.30;76.70;;;;;;5055126;28;20060;-35
2021/05/30 06:17:08;;;;;;;27.73;18.60;;;12.20;76.60;;;;;;5055615;28;20136;-36
2021/05/30 06:19:34;;;;;;;27.27;18.35;;;12.30;76.70;;;;;;5054869;28;20029;-35
2021/05/30 06:22:00;;;;;;;22.83;16.50;;;12.40;76.30;;;;;;5054858;28;20017;-43
2021/05/30 06:24:26;;;;;;;24.42;16.33;;;12.50;75.50;;;;;;5055130;28;20032;-36
2021/05/30 06:26:56;;;;;;;21.88;14.45;;;12.80;75.10;;;;;;5054350;28;20049;-36
2021/05/30 06:29:22;;;;;;;21.17;14.73;;;12.90;74.00;;;;;;5054121;28;20104;-36
2021/05/30 06:31:48;;;;;;;23.90;16.27;;;13.00;73.40;;;;;;5054692;28;20398;-37
2021/05/30 06:34:17;;;;;;;22.45;15.23;;;12.90;73.70;;;;;;5055413;28;20078;-36
2021/05/30 06:36:43;;;;;;;20.63;13.70;;;13.30;72.80;;;;;;5055161;28;20138;-36
2021/05/30 06:39:10;;;;;;;21.67;15.95;;;13.50;71.60;;;;;;5055109;28;20110;-37
2021/05/30 06:41:36;;;;;;;22.15;13.45;;;13.50;71.00;;;;;;5054872;28;20056;-36
2021/05/30 06:44:04;;;;;;;18.52;13.65;;;13.50;71.50;;;;;;5055146;28;20036;-36
2021/05/30 06:46:29;;;;;;;21.73;14.40;;;13.50;71.10;;;;;;5055111;28;20460;-36
2021/05/30 06:48:55;;;;;;;19.30;14.48;;;13.40;71.60;;;;;;5054598;28;20111;-36
2021/05/30 06:51:22;;;;;;;21.25;15.02;;;13.40;72.20;;;;;;5054920;28;20365;-36
2021/05/30 06:53:50;;;;;;;23.15;14.13;;;13.40;71.80;;;;;;5054239;28;20028;-36
2021/05/30 06:56:17;;;;;;;19.75;14.50;;;13.60;71.60;;;;;;5054006;28;20071;-36
2021/05/30 06:58:43;;;;;;;23.17;13.82;;;13.80;71.30;;;;;;5054093;28;20074;-36
2021/05/30 07:01:09;;;;;;;19.23;13.25;;;13.90;70.60;;;;;;5054125;28;20052;-37
2021/05/30 07:03:35;;;;;;;22.13;12.27;;;14.20;70.10;;;;;;5054601;28;20025;-37
2021/05/30 07:06:01;;;;;;;15.07;10.95;;;14.40;68.60;;;;;;5054106;28;20469;-37
2021/05/30 07:08:27;;;;;;;17.30;12.55;;;14.40;68.10;;;;;;5054183;28;20017;-36
2021/05/30 07:10:53;;;;;;;17.23;11.27;;;14.50;67.80;;;;;;5036070;28;20021;-37
2021/05/30 07:13:19;;;;;;;16.83;12.20;;;14.70;67.20;;;;;;5036528;28;20036;-37
2021/05/30 07:15:45;;;;;;;14.98;11.20;;;14.80;66.30;;;;;;5053829;28;20407;-36
2021/05/30 07:18:11;;;;;;;16.15;11.10;;;14.90;66.30;;;;;;5054037;28;20094;-36
2021/05/30 07:20:42;;;;;;;23.77;13.25;;;15.00;65.40;;;;;;5053712;28;20036;-36
2021/05/30 07:23:08;;;;;;;18.52;10.75;;;15.00;66.00;;;;;;5053731;28;20020;-36
2021/05/30 07:25:33;;;;;;;17.42;11.32;;;15.20;65.50;;;;;;5053834;28;20503;-36
2021/05/30 07:27:59;;;;;;;15.27;10.23;;;15.90;62.70;;;;;;5053499;28;20064;-37
2021/05/30 07:30:25;;;;;;;15.75;10.57;;;16.40;61.10;;;;;;5054064;28;20024;-36
2021/05/30 07:32:51;;;;;;;14.02;10.50;;;16.50;60.10;;;;;;5054049;28;20049;-37
2021/05/30 07:35:16;;;;;;;16.33;9.45;;;16.30;61.30;;;;;;5053746;28;20025;-36
2021/05/30 07:37:42;;;;;;;19.23;10.25;;;16.50;60.60;;;;;;5053845;28;20112;-37
2021/05/30 07:40:12;;;;;;;13.60;9.25;;;16.90;58.30;;;;;;5053937;28;20481;-38
2021/05/30 07:42:37;;;;;;;14.20;10.20;;;16.60;58.60;;;;;;5036407;28;20025;-37
2021/05/30 07:45:04;;;;;;;15.02;9.65;;;17.20;58.10;;;;;;5053699;28;20067;-36
2021/05/30 07:47:30;;;;;;;13.55;9.57;;;17.70;55.70;;;;;;5053425;28;20040;-36
2021/05/30 07:49:56;;;;;;;11.52;9.25;;;17.80;55.20;;;;;;5054088;28;20104;-36
2021/05/30 07:52:22;;;;;;;13.13;8.85;;;18.50;53.60;;;;;;5035909;28;20025;-36
2021/05/30 07:54:48;;;;;;;12.90;9.48;;;19.10;50.40;;;;;;5053685;28;20021;-36
2021/05/30 07:57:13;;;;;;;16.35;9.77;;;18.20;52.60;;;;;;5053628;28;20507;-37
2021/05/30 07:59:39;;;;;;;10.32;8.23;;;18.40;52.60;;;;;;5053089;28;20438;-36
2021/05/30 08:02:05;;;;;;;10.60;8.25;;;18.90;50.00;;;;;;5053331;28;20086;-36
2021/05/30 08:04:31;;;;;;;10.55;8.35;;;18.80;50.70;;;;;;5053166;28;20078;-36
2021/05/30 08:06:56;;;;;;;12.77;8.57;;;18.70;50.60;;;;;;5035806;28;20438;-36
2021/05/30 08:09:22;;;;;;;11.02;7.78;;;18.80;49.90;;;;;;5053274;28;20053;-38
2021/05/30 08:11:48;;;;;;;11.88;8.40;;;18.90;50.00;;;;;;5053524;28;20427;-38
2021/05/30 08:14:14;;;;;;;11.48;8.60;;;18.80;50.60;;;;;;5053462;28;20033;-37
2021/05/30 08:16:41;;;;;;;10.40;8.25;;;18.80;51.20;;;;;;5053142;28;20031;-36
2021/05/30 08:19:07;;;;;;;11.05;7.55;;;18.80;51.10;;;;;;5053039;28;20040;-37
2021/05/30 08:21:32;;;;;;;12.27;7.65;;;19.50;47.90;;;;;;5052829;28;20054;-36
2021/05/30 08:23:58;;;;;;;10.70;7.97;;;19.90;47.40;;;;;;5052818;28;20024;-37
2021/05/30 08:26:25;;;;;;;9.23;7.35;;;20.70;44.10;;;;;;5053020;28;20136;-37
2021/05/30 08:28:50;;;;;;;9.52;7.60;;;20.40;45.40;;;;;;5053644;28;20029;-36
2021/05/30 08:31:16;;;;;;;10.40;7.25;;;20.30;44.60;;;;;;5053228;28;20067;-35
2021/05/30 08:33:42;;;;;;;9.68;6.97;;;19.90;46.50;;;;;;5054056;28;20025;-35
2021/05/30 08:36:08;;;;;;;8.63;7.15;;;19.30;45.60;;;;;;5054120;28;20024;-35
2021/05/30 08:38:33;;;;;;;9.68;6.65;;;19.80;46.10;;;;;;5053647;28;20116;-36
2021/05/30 08:41:00;;;;;;;9.05;7.05;;;20.40;44.80;;;;;;5052918;28;20025;-35
2021/05/30 08:43:27;;;;;;;8.48;7.03;;;21.10;43.60;;;;;;5053182;28;20417;-35
2021/05/30 08:45:53;;;;;;;10.65;6.90;;;21.40;41.60;;;;;;5053076;28;20090;-35
2021/05/30 08:48:19;;;;;;;12.85;7.05;;;22.20;40.80;;;;;;5052928;28;20040;-35
2021/05/30 08:51:02;;;;;;;6.32;5.20;;;21.60;40.90;;;;;;5035295;28;20021;-36
2021/05/30 08:53:32;;;;;;;7.50;6.50;;;21.60;38.70;;;;;;5057388;28;20052;-35
2021/05/30 08:55:58;;;;;;;8.18;5.47;;;21.40;40.20;;;;;;5057202;28;20025;-37
2021/05/30 08:58:43;;;;;;;8.15;5.75;;;20.30;42.60;;;;;;5056866;28;20029;-36
2021/05/30 09:01:15;;;;;;;9.82;6.18;;;19.90;42.00;;;;;;5056720;28;20032;-35
2021/05/30 09:04:08;;;;;;;5.80;4.95;;;20.00;42.00;;;;;;5056918;28;20167;-36
2021/05/30 09:06:35;;;;;;;10.70;4.32;;;20.40;40.90;;;;;;5056486;28;20033;-37
2021/05/30 09:09:04;;;;;;;5.13;3.88;;;20.90;39.80;;;;;;5055897;28;20025;-41
2021/05/30 09:11:40;;;;;;;4.38;3.47;;;21.50;37.30;;;;;;5055995;28;20092;-35
2021/05/30 09:14:12;;;;;;;6.68;4.75;;;21.00;36.70;;;;;;5056826;28;20025;-35
2021/05/30 09:17:08;;;;;;;3.80;2.60;;;21.10;38.70;;;;;;5039508;28;20029;-35
2021/05/30 09:19:40;;;;;;;3.08;2.72;;;21.10;36.40;;;;;;5056551;28;20057;-35
2021/05/30 09:22:15;;;;;;;6.50;3.30;;;21.80;35.50;;;;;;5056264;28;20036;-34
2021/05/30 09:24:57;;;;;;;5.40;3.20;;;21.90;35.40;;;;;;5056186;28;20079;-35
2021/05/30 09:27:24;;;;;;;3.85;2.90;;;22.20;32.90;;;;;;5055456;28;20079;-35
2021/05/30 09:30:07;;;;;;;3.78;2.90;;;22.00;33.50;;;;;;5038267;28;20086;-36
2021/05/30 09:32:52;;;;;;;3.95;3.42;;;22.30;32.80;;;;;;5056340;28;20447;-35
2021/05/30 09:35:18;;;;;;;6.03;4.57;;;21.30;35.50;;;;;;5055971;28;20021;-34
2021/05/30 09:37:43;;;;;;;9.45;4.45;;;21.20;37.00;;;;;;5056206;28;20381;-36
2021/05/30 09:40:10;;;;;;;7.00;4.68;;;21.30;37.60;;;;;;5056216;28;20029;-37
2021/05/30 09:42:36;;;;;;;6.32;4.32;;;21.60;37.40;;;;;;5055848;28;20039;-37
2021/05/30 09:45:03;;;;;;;9.63;4.45;;;21.70;36.90;;;;;;5055893;28;20021;-36
2021/05/30 09:47:38;;;;;;;7.15;5.28;;;22.40;36.60;;;;;;5037754;28;20381;-36
2021/05/30 09:50:06;;;;;;;9.38;5.13;;;22.20;36.90;;;;;;5055695;28;20025;-36
2021/05/30 09:52:48;;;;;;;9.02;4.10;;;22.20;36.10;;;;;;5055572;28;20090;-35
2021/05/30 09:55:15;;;;;;;8.90;4.80;;;21.80;36.80;;;;;;5055195;28;20049;-35
2021/05/30 09:57:41;;;;;;;7.05;4.68;;;21.70;36.60;;;;;;5055412;28;20074;-36
2021/05/30 10:00:21;;;;;;;5.88;3.95;;;21.10;37.30;;;;;;5055717;28;20354;-37
2021/05/30 10:02:47;;;;;;;6.53;3.92;;;22.00;35.40;;;;;;5054505;28;20036;-35
2021/05/30 10:05:12;;;;;;;6.40;4.00;;;22.40;35.30;;;;;;5055804;28;20033;-35
2021/05/30 10:07:39;;;;;;;6.63;4.97;;;22.30;35.90;;;;;;5055403;28;20431;-35
2021/05/30 10:10:06;;;;;;;7.30;5.75;;;22.00;37.00;;;;;;5038262;28;20029;-35
2021/05/30 10:12:33;;;;;;;7.97;4.30;;;22.70;35.70;;;;;;5055539;28;20107;-37
2021/05/30 10:14:59;;;;;;;4.60;4.03;;;23.20;34.30;;;;;;5055825;28;20029;-36
2021/05/30 10:17:25;;;;;;;7.72;4.80;;;22.80;33.90;;;;;;5055907;28;20112;-35
2021/05/30 10:19:52;;;;;;;7.57;4.90;;;22.40;34.90;;;;;;5055710;28;20032;-35
2021/05/30 10:22:18;;;;;;;5.53;4.22;;;22.90;34.00;;;;;;5055703;28;20025;-35
2021/05/30 10:24:44;;;;;;;6.22;4.00;;;24.20;31.70;;;;;;5036916;28;20033;-35
2021/05/30 10:27:11;;;;;;;6.13;4.20;;;23.80;32.80;;;;;;5055086;28;20045;-36
2021/05/30 10:29:37;;;;;;;7.63;4.38;;;22.60;33.90;;;;;;5055264;28;20143;-35
2021/05/30 10:32:18;;;;;;;7.13;3.28;;;22.70;34.60;;;;;;5054699;28;20136;-35
2021/05/30 10:35:02;;;;;;;;;;;22.90;32.40;;;;;;5055889;28;20024;-36
2021/05/30 10:37:28;;;;;;;5.57;3.97;;;22.40;32.70;;;;;;5053335;28;19904;-35
2021/05/30 10:39:56;;;;;;;4.00;3.60;;;22.30;34.10;;;;;;5054760;28;20020;-36
2021/05/30 10:42:25;;;;;;;11.60;4.57;;;22.20;33.90;;;;;;5037144;28;20029;-36
2021/05/30 10:45:06;;;;;;;6.00;4.28;;;22.90;32.50;;;;;;5054412;28;20032;-36
2021/05/30 10:47:44;;;;;;;5.15;3.90;;;23.80;31.80;;;;;;5054539;28;20021;-35
2021/05/30 10:50:16;;;;;;;6.45;4.03;;;23.80;31.10;;;;;;5054359;28;20036;-35
2021/05/30 10:52:44;;;;;;;7.28;3.95;;;24.20;31.50;;;;;;5054330;28;20052;-37
2021/05/30 10:55:12;;;;;;;4.40;3.72;;;24.80;29.30;;;;;;5054441;28;20492;-37
2021/05/30 10:57:49;;;;;;;4.88;3.50;;;23.50;31.40;;;;;;5055124;28;20029;-36
2021/05/30 11:00:21;;;;;;;4.82;3.00;;;23.70;30.10;;;;;;5053950;28;20096;-36
2021/05/30 11:03:03;;;;;;;3.92;3.10;;;24.40;29.20;;;;;;5035722;28;20032;-35
2021/05/30 11:06:01;;;;;;;6.45;3.20;;;24.40;28.80;;;;;;5036010;28;20389;-35
2021/05/30 11:08:35;;;;;;;4.25;2.55;;;24.30;29.50;;;;;;5009904;28;20119;-37
2021/05/30 11:11:24;;;;;;;5.75;2.80;;;24.10;28.50;;;;;;5053838;28;20021;-37
2021/05/30 11:14:01;;;;;;;3.17;2.50;;;23.60;30.30;;;;;;5053203;28;20021;-35
2021/05/30 11:16:32;;;;;;;3.78;3.05;;;22.90;29.90;;;;;;5053524;28;20040;-35
2021/05/30 11:19:00;;;;;;;5.07;3.35;;;23.50;30.40;;;;;;5035912;28;20032;-35
2021/05/30 11:21:27;;;;;;;3.45;3.13;;;24.40;31.00;;;;;;5054004;28;20504;-35
2021/05/30 11:23:55;;;;;;;4.78;3.30;;;24.70;29.90;;;;;;5053624;28;20013;-37
2021/05/30 11:26:21;;;;;;;6.53;3.33;;;24.60;30.80;;;;;;5032619;28;20132;-38
2021/05/30 11:28:47;;;;;;;6.55;3.45;;;24.90;30.30;;;;;;5033947;28;20109;-37
2021/05/30 11:31:13;;;;;;;7.63;5.05;;;25.00;30.50;;;;;;5033450;28;20128;-36
2021/05/30 11:33:45;;;;;;;6.15;3.60;;;25.40;29.40;;;;;;5016101;28;20029;-37
2021/05/30 11:36:24;;;;;;;3.33;2.15;;;25.30;29.60;;;;;;5015414;28;20496;-35
2021/05/30 11:38:55;;;;;;;2.90;2.47;;;25.80;26.90;;;;;;5015774;28;20029;-36
2021/05/30 11:41:38;;;;;;;4.68;2.88;;;25.90;27.30;;;;;;5015937;28;20537;-36
2021/05/30 11:44:21;;;;;;;3.90;2.60;;;25.80;27.60;;;;;;5034060;28;20025;-36
2021/05/30 11:47:00;;;;;;;5.13;2.92;;;24.50;29.50;;;;;;5033313;28;20453;-36
2021/05/30 11:49:28;;;;;;;4.43;2.40;;;24.40;29.60;;;;;;5033045;28;20083;-36
2021/05/30 11:52:01;;;;;;;3.65;2.38;;;24.60;29.50;;;;;;5032991;28;20290;-36
2021/05/30 11:54:52;;;;;;;3.47;1.98;;;23.80;30.20;;;;;;5015845;28;20105;-37
2021/05/30 11:57:21;;;;;;;3.00;2.47;;;24.50;28.30;;;;;;5033650;28;20021;-36
2021/05/30 11:59:53;;;;;;;3.13;2.47;;;25.10;27.90;;;;;;5034219;28;20021;-35
2021/05/30 12:02:29;;;;;;;7.15;2.42;;;25.10;28.20;;;;;;5034443;28;20022;-37
2021/05/30 12:05:06;;;;;;;3.00;2.65;;;25.80;27.90;;;;;;5000117;28;20121;-38
2021/05/30 12:07:32;;;;;;;6.72;3.65;;;25.80;28.60;;;;;;5034047;28;20426;-37
2021/05/30 12:09:59;;;;;;;4.90;2.78;;;25.10;30.70;;;;;;5034133;28;20056;-36
2021/05/30 12:12:40;;;;;;;3.17;2.88;;;25.50;29.70;;;;;;5034274;28;20018;-35
2021/05/30 12:15:05;;;;;;;5.20;3.35;;;24.30;29.80;;;;;;5034490;28;20018;-36
2021/05/30 12:17:31;;;;;;;3.10;2.30;;;23.80;32.30;;;;;;5034156;28;20037;-37
2021/05/30 12:19:57;;;;;;;3.13;2.70;;;24.50;29.50;;;;;;5035284;28;20051;-35
2021/05/30 12:22:28;;;;;;;2.33;2.13;;;24.20;29.50;;;;;;5016105;28;20367;-35
2021/05/30 12:24:54;;;;;;;3.40;2.50;;;24.20;30.00;;;;;;5032771;28;20094;-35
2021/05/30 12:27:22;;;;;;;5.90;2.75;;;24.50;29.70;;;;;;5031580;28;20060;-36
2021/05/30 12:29:50;;;;;;;3.83;2.75;;;25.10;27.90;;;;;;5034522;28;20097;-36
2021/05/30 12:32:16;;;;;;;6.05;3.72;;;24.90;28.70;;;;;;5032617;28;20417;-35
2021/05/30 12:34:43;;;;;;;3.70;3.08;;;24.70;30.30;;;;;;5015094;28;20017;-36
2021/05/30 12:37:08;;;;;;;4.32;3.53;;;24.80;30.20;;;;;;5032413;28;20422;-37
2021/05/30 12:39:34;;;;;;;2.78;2.58;;;25.40;29.00;;;;;;5032225;28;20060;-36
2021/05/30 12:42:06;;;;;;;6.00;3.55;;;25.00;29.30;;;;;;5031219;28;20048;-36